createdAt,value
2023-01-19T00:00:24.710Z,14.48
2023-01-19T00:03:16.349Z,12.38
2023-01-19T00:05:47.522Z,12.52
2023-01-19T00:08:17.572Z,15.05
2023-01-19T00:10:48.490Z,14.95
2023-01-19T00:13:18.154Z,16.23
2023-01-19T00:15:47.629Z,15.57
2023-01-19T00:18:17.151Z,13.23
2023-01-19T00:20:49.156Z,13.23
2023-01-19T00:23:18.644Z,13.25
2023-01-19T00:25:49.235Z,10.55
2023-01-19T00:28:20.185Z,9.02
2023-01-19T00:30:51.487Z,8.75
2023-01-19T00:33:21.116Z,8.85
2023-01-19T00:35:54.984Z,8.88
2023-01-19T00:38:24.711Z,9.00
2023-01-19T00:40:54.171Z,8.88
2023-01-19T00:43:23.795Z,8.20
2023-01-19T00:45:53.601Z,8.32
2023-01-19T00:48:23.256Z,10.52
2023-01-19T00:50:53.875Z,10.40
2023-01-19T00:53:23.271Z,9.20
2023-01-19T00:55:52.388Z,8.00
2023-01-19T00:58:22.708Z,9.50
2023-01-19T01:00:54.272Z,9.98
2023-01-19T01:03:28.262Z,9.02
2023-01-19T01:05:58.987Z,12.90
2023-01-19T01:08:28.646Z,11.93
2023-01-19T01:10:58.275Z,10.38
2023-01-19T01:13:28.461Z,8.70
2023-01-19T01:15:58.701Z,9.02
2023-01-19T01:18:28.396Z,7.70
2023-01-19T01:21:04.261Z,8.32
2023-01-19T01:23:33.862Z,8.57
2023-01-19T01:26:03.265Z,8.43
2023-01-19T01:28:33.624Z,8.77
2023-01-19T01:31:02.995Z,8.45
2023-01-19T01:33:40.939Z,10.43
2023-01-19T01:36:12.830Z,8.77
2023-01-19T01:38:42.788Z,9.77
2023-01-19T01:41:12.908Z,10.23
2023-01-19T01:43:50.984Z,9.85
2023-01-19T01:46:20.428Z,8.93
2023-01-19T01:48:55.991Z,10.65
2023-01-19T01:51:30.947Z,10.98
2023-01-19T01:54:12.844Z,9.10
2023-01-19T01:56:45.315Z,10.23
2023-01-19T01:59:25.850Z,10.38
2023-01-19T02:02:15.754Z,10.30
2023-01-19T02:04:50.802Z,10.57
2023-01-19T02:07:47.902Z,10.77
2023-01-19T02:10:36.609Z,10.45
2023-01-19T02:13:19.942Z,9.68
2023-01-19T02:15:52.631Z,8.13
2023-01-19T02:18:23.143Z,7.72
2023-01-19T02:21:09.531Z,7.63
2023-01-19T02:26:14.741Z,6.85
2023-01-19T02:28:48.375Z,6.90
2023-01-19T02:31:18.232Z,7.50
2023-01-19T02:33:47.561Z,7.57
2023-01-19T02:36:22.447Z,7.38
2023-01-19T02:38:56.368Z,8.38
2023-01-19T02:41:31.065Z,7.25
2023-01-19T02:44:02.373Z,7.40
2023-01-19T02:46:31.850Z,7.60
2023-01-19T02:49:01.752Z,7.05
2023-01-19T02:51:31.487Z,7.32
2023-01-19T02:54:29.180Z,8.38
2023-01-19T02:57:25.607Z,6.53
2023-01-19T03:00:09.793Z,6.97
2023-01-19T03:02:51.177Z,6.22
2023-01-19T03:05:35.491Z,7.25
2023-01-19T03:08:16.240Z,7.53
2023-01-19T03:10:55.175Z,5.88
2023-01-19T03:13:32.703Z,6.50
2023-01-19T03:16:12.163Z,6.90
2023-01-19T03:18:45.257Z,5.85
2023-01-19T03:21:17.391Z,7.05
2023-01-19T03:23:48.977Z,6.07
2023-01-19T03:26:24.423Z,5.88
2023-01-19T03:28:55.583Z,5.82
2023-01-19T03:36:26.745Z,6.88
2023-01-19T03:38:59.237Z,5.93
2023-01-19T03:41:32.514Z,6.25
2023-01-19T03:44:02.801Z,6.32
2023-01-19T03:46:34.010Z,6.03
2023-01-19T03:49:03.337Z,6.50
2023-01-19T03:51:36.626Z,7.10
2023-01-19T03:54:06.704Z,6.75
2023-01-19T03:56:37.955Z,5.97
2023-01-19T03:59:07.453Z,5.82
2023-01-19T04:01:36.959Z,5.45
2023-01-19T04:04:06.211Z,5.72
2023-01-19T04:06:35.890Z,5.30
2023-01-19T04:09:05.166Z,5.32
2023-01-19T04:11:36.217Z,6.25
2023-01-19T04:14:05.958Z,4.97
2023-01-19T04:16:35.589Z,5.30
2023-01-19T04:19:04.815Z,5.72
2023-01-19T04:21:35.013Z,6.20
2023-01-19T04:24:04.238Z,5.45
2023-01-19T04:26:33.758Z,5.05
2023-01-19T04:29:04.545Z,6.55
2023-01-19T04:31:35.673Z,6.57
2023-01-19T04:34:05.277Z,7.07
2023-01-19T04:36:34.834Z,6.93
2023-01-19T04:39:05.072Z,6.68
2023-01-19T04:41:34.619Z,7.15
2023-01-19T04:44:06.023Z,7.47
2023-01-19T04:46:35.481Z,8.00
2023-01-19T04:49:04.633Z,6.88
2023-01-19T04:51:34.387Z,7.20
2023-01-19T04:54:04.088Z,7.45
2023-01-19T04:56:33.580Z,7.03
2023-01-19T04:59:04.427Z,6.80
2023-01-19T05:01:34.119Z,7.57
2023-01-19T05:04:05.193Z,7.93
2023-01-19T05:06:35.365Z,8.25
2023-01-19T05:09:07.936Z,8.25
2023-01-19T05:11:37.631Z,8.38
2023-01-19T05:14:08.284Z,9.82
2023-01-19T05:16:37.912Z,12.15
2023-01-19T05:19:07.296Z,13.60
2023-01-19T05:21:37.115Z,13.13
2023-01-19T05:24:06.728Z,14.98
2023-01-19T05:26:36.279Z,13.98
2023-01-19T05:29:05.458Z,15.50
2023-01-19T05:31:37.202Z,14.25
2023-01-19T05:34:07.152Z,15.10
2023-01-19T05:36:36.897Z,12.57
2023-01-19T05:39:06.240Z,12.65
2023-01-19T05:41:35.724Z,15.05
2023-01-19T05:44:05.410Z,14.73
2023-01-19T05:46:36.922Z,14.25
2023-01-19T05:49:07.398Z,12.68
2023-01-19T05:51:38.674Z,13.95
2023-01-19T05:54:08.890Z,13.90
2023-01-19T05:56:39.442Z,14.05
2023-01-19T05:59:08.838Z,14.90
2023-01-19T06:01:40.311Z,13.25
2023-01-19T06:04:09.861Z,13.70
2023-01-19T06:06:39.287Z,13.32
2023-01-19T06:09:08.520Z,15.73
2023-01-19T06:11:38.077Z,15.77
2023-01-19T06:14:07.303Z,16.20
2023-01-19T06:16:39.923Z,15.75
2023-01-19T06:19:09.098Z,16.83
2023-01-19T06:21:39.700Z,18.40
2023-01-19T06:24:09.089Z,17.65
2023-01-19T06:26:38.792Z,12.43
2023-01-19T06:29:09.924Z,12.77
2023-01-19T06:31:40.915Z,13.18
2023-01-19T06:34:11.529Z,12.50
2023-01-19T06:36:41.414Z,13.98
2023-01-19T06:39:11.411Z,14.20
2023-01-19T06:41:41.579Z,13.45
2023-01-19T06:44:10.907Z,12.30
2023-01-19T06:46:41.847Z,12.43
2023-01-19T06:49:11.256Z,12.50
2023-01-19T06:51:40.764Z,12.18
2023-01-19T06:54:10.257Z,12.10
2023-01-19T06:56:39.718Z,13.18
2023-01-19T06:59:09.934Z,16.42
2023-01-19T07:01:40.979Z,14.40
2023-01-19T07:04:14.080Z,16.63
2023-01-19T07:06:43.543Z,16.42
2023-01-19T07:09:14.606Z,16.83
2023-01-19T07:11:45.042Z,18.00
2023-01-19T07:14:14.366Z,17.88
2023-01-19T07:16:45.349Z,20.13
2023-01-19T07:19:15.407Z,20.13
2023-01-19T07:21:44.857Z,18.85
2023-01-19T07:24:14.379Z,18.70
2023-01-19T07:26:43.937Z,17.95
2023-01-19T07:29:13.153Z,19.17
2023-01-19T07:31:44.232Z,18.95
2023-01-19T07:34:13.475Z,20.88
2023-01-19T07:36:44.240Z,23.08
2023-01-19T07:39:13.592Z,26.00
2023-01-19T07:41:43.069Z,25.00
2023-01-19T07:44:12.420Z,21.17
2023-01-19T07:46:42.138Z,21.13
2023-01-19T07:49:12.938Z,20.35
2023-01-19T07:51:42.548Z,18.75
2023-01-19T07:54:11.938Z,18.60
2023-01-19T07:56:41.514Z,17.80
2023-01-19T07:59:11.562Z,19.27
2023-01-19T08:01:41.402Z,18.00
2023-01-19T08:04:13.911Z,17.23
2023-01-19T08:06:47.958Z,18.50
2023-01-19T08:09:18.227Z,17.42
2023-01-19T08:11:48.222Z,17.85
2023-01-19T08:14:20.707Z,16.45
2023-01-19T08:16:50.639Z,16.23
2023-01-19T08:19:21.536Z,18.23
2023-01-19T08:21:51.053Z,18.80
2023-01-19T08:24:23.818Z,17.23
2023-01-19T08:26:59.283Z,17.48
2023-01-19T08:29:30.788Z,16.38
2023-01-19T08:32:03.140Z,15.98
2023-01-19T08:34:33.932Z,15.73
2023-01-19T08:37:03.474Z,15.40
2023-01-19T08:39:32.773Z,14.40
2023-01-19T08:42:02.553Z,16.23
2023-01-19T08:44:31.880Z,16.80
2023-01-19T08:47:01.793Z,18.63
2023-01-19T08:49:32.938Z,16.70
2023-01-19T08:52:03.105Z,17.98
2023-01-19T08:54:32.330Z,17.83
2023-01-19T08:57:02.062Z,19.02
2023-01-19T08:59:31.378Z,18.40
2023-01-19T09:02:01.050Z,20.17
2023-01-19T09:04:30.354Z,17.05
2023-01-19T09:07:01.314Z,17.27
2023-01-19T09:09:30.660Z,17.85
2023-01-19T09:12:00.354Z,16.85
2023-01-19T09:14:29.744Z,16.13
2023-01-19T09:16:59.861Z,16.40
2023-01-19T09:19:29.233Z,18.33
2023-01-19T09:22:00.656Z,16.20
2023-01-19T09:24:30.089Z,16.55
2023-01-19T09:26:59.692Z,18.75
2023-01-19T09:29:29.110Z,17.52
2023-01-19T09:31:58.867Z,17.42
2023-01-19T09:34:28.205Z,22.10
2023-01-19T09:37:03.779Z,23.77
2023-01-19T09:39:33.058Z,24.20
2023-01-19T09:42:09.517Z,21.25
2023-01-19T09:44:39.045Z,22.20
2023-01-19T09:47:17.664Z,24.98
2023-01-19T09:49:53.831Z,22.20
2023-01-19T09:52:24.871Z,24.58
2023-01-19T09:54:56.751Z,22.77
2023-01-19T09:57:28.073Z,21.63
2023-01-19T09:59:59.819Z,17.83
2023-01-19T10:02:37.660Z,17.67
2023-01-19T10:05:20.405Z,15.30
2023-01-19T10:08:08.692Z,14.13
2023-01-19T10:10:42.351Z,13.65
2023-01-19T10:13:30.831Z,15.20
2023-01-19T10:16:14.417Z,15.70
2023-01-19T10:18:47.834Z,16.35
2023-01-19T10:21:21.756Z,17.48
2023-01-19T10:23:56.306Z,14.80
2023-01-19T10:26:28.203Z,15.50
2023-01-19T10:29:03.544Z,15.45
2023-01-19T10:31:35.605Z,16.13
2023-01-19T10:34:06.016Z,15.75
2023-01-19T10:36:38.177Z,14.55
2023-01-19T10:39:09.416Z,14.80
2023-01-19T10:41:44.050Z,14.63
2023-01-19T10:44:13.667Z,14.52
2023-01-19T10:46:46.019Z,14.77
2023-01-19T10:49:27.030Z,15.07
2023-01-19T10:51:57.533Z,15.05
2023-01-19T10:54:31.052Z,16.00
2023-01-19T10:57:05.222Z,14.40
2023-01-19T10:59:38.174Z,14.40
2023-01-19T11:02:20.253Z,14.95
2023-01-19T11:04:53.165Z,15.10
2023-01-19T11:07:24.875Z,15.50
2023-01-19T11:10:22.003Z,14.90
2023-01-19T11:13:03.268Z,15.25
2023-01-19T11:15:41.984Z,16.13
2023-01-19T11:18:24.351Z,16.60
2023-01-19T11:20:55.609Z,15.77
2023-01-19T11:23:29.316Z,16.35
2023-01-19T11:26:02.857Z,15.05
2023-01-19T11:28:34.540Z,14.43
2023-01-19T11:31:18.493Z,12.25
2023-01-19T11:33:52.603Z,11.38
2023-01-19T11:36:23.322Z,12.43
2023-01-19T11:38:54.510Z,11.95
2023-01-19T11:41:29.716Z,11.93
2023-01-19T11:44:04.044Z,12.40
2023-01-19T11:46:35.364Z,14.60
2023-01-19T11:49:07.127Z,15.88
2023-01-19T11:51:45.662Z,16.63
2023-01-19T11:54:23.823Z,15.40
2023-01-19T11:56:59.814Z,15.10
2023-01-19T11:59:29.633Z,14.30
2023-01-19T12:02:04.083Z,14.60
2023-01-19T12:04:37.652Z,13.73
2023-01-19T12:07:10.761Z,14.20
2023-01-19T12:09:46.448Z,11.65
2023-01-19T12:12:26.771Z,12.43
2023-01-19T12:15:01.640Z,11.00
2023-01-19T12:17:35.375Z,11.90
2023-01-19T12:20:15.099Z,10.50
2023-01-19T12:22:51.798Z,11.80
2023-01-19T12:25:27.532Z,9.17
2023-01-19T12:28:00.336Z,9.82
2023-01-19T12:30:31.463Z,10.45
2023-01-19T12:33:23.556Z,8.98
2023-01-19T12:35:57.518Z,10.80
2023-01-19T12:38:41.769Z,11.05
2023-01-19T12:41:26.590Z,10.93
2023-01-19T12:46:48.122Z,9.38
2023-01-19T12:49:28.051Z,8.80
2023-01-19T12:52:15.431Z,8.95
2023-01-19T12:54:51.700Z,8.38
2023-01-19T12:57:25.220Z,8.48
2023-01-19T13:00:02.208Z,9.15
2023-01-19T13:02:54.900Z,8.02
2023-01-19T13:05:53.607Z,8.82
2023-01-19T13:08:28.653Z,8.77
2023-01-19T13:14:22.596Z,9.13
2023-01-19T13:17:03.369Z,8.90
2023-01-19T13:20:08.914Z,12.63
2023-01-19T13:23:15.490Z,15.18
2023-01-19T13:25:48.425Z,14.85
2023-01-19T13:28:20.872Z,12.88
2023-01-19T13:30:59.344Z,15.88
2023-01-19T13:33:35.422Z,12.40
2023-01-19T13:38:44.555Z,11.63
2023-01-19T13:41:19.475Z,12.25
2023-01-19T13:43:51.278Z,12.55
2023-01-19T13:46:21.424Z,11.65
2023-01-19T13:48:58.076Z,11.68
2023-01-19T13:51:28.750Z,11.07
2023-01-19T13:53:59.482Z,10.50
2023-01-19T13:56:29.812Z,12.73
2023-01-19T13:59:01.266Z,12.07
2023-01-19T14:01:32.229Z,13.43
2023-01-19T14:04:02.111Z,12.43
2023-01-19T14:06:39.933Z,14.32
2023-01-19T14:09:20.521Z,13.50
2023-01-19T14:12:06.775Z,14.52
2023-01-19T14:14:36.462Z,14.32
2023-01-19T14:17:06.046Z,14.50
2023-01-19T14:19:49.776Z,15.30
2023-01-19T14:22:20.789Z,14.55
2023-01-19T14:24:50.502Z,15.90
2023-01-19T14:27:24.318Z,14.75
2023-01-19T14:29:54.982Z,16.17
2023-01-19T14:32:27.808Z,18.35
2023-01-19T14:35:15.777Z,19.10
2023-01-19T14:37:51.412Z,19.63
2023-01-19T14:40:24.615Z,20.35
2023-01-19T14:42:57.409Z,20.55
2023-01-19T14:45:32.360Z,21.85
2023-01-19T14:48:03.993Z,19.23
2023-01-19T14:50:37.309Z,16.35
2023-01-19T14:53:09.693Z,17.20
2023-01-19T14:55:48.052Z,18.65
2023-01-19T14:58:19.494Z,15.38
2023-01-19T15:00:50.047Z,16.48
2023-01-19T15:03:19.389Z,19.27
2023-01-19T15:05:49.519Z,21.45
2023-01-19T15:08:26.553Z,19.50
2023-01-19T15:10:56.397Z,17.45
2023-01-19T15:13:28.708Z,19.63
2023-01-19T15:15:59.000Z,18.67
2023-01-19T15:18:28.934Z,22.13
2023-01-19T15:21:02.817Z,21.25
2023-01-19T15:23:34.193Z,19.60
2023-01-19T15:26:06.140Z,20.20
2023-01-19T15:28:35.592Z,24.23
2023-01-19T15:31:06.166Z,28.00
2023-01-19T15:33:35.639Z,25.30
2023-01-19T15:36:05.446Z,31.55
2023-01-19T15:38:36.454Z,32.40
2023-01-19T15:41:10.004Z,31.90
2023-01-19T15:43:39.347Z,31.27
2023-01-19T15:46:10.531Z,47.72
2023-01-19T15:48:40.506Z,47.97
2023-01-19T15:51:14.678Z,40.55
2023-01-19T15:53:45.917Z,39.10
2023-01-19T15:56:17.291Z,38.38
2023-01-19T15:58:47.129Z,40.55
2023-01-19T16:01:18.417Z,43.78
2023-01-19T16:03:48.276Z,54.60
2023-01-19T16:06:18.134Z,44.40
2023-01-19T16:08:48.711Z,35.00
2023-01-19T16:11:18.699Z,46.38
2023-01-19T16:13:48.854Z,46.88
2023-01-19T16:16:20.297Z,43.85
2023-01-19T16:18:50.012Z,39.83
2023-01-19T16:21:20.208Z,36.90
2023-01-19T16:23:51.180Z,40.28
2023-01-19T16:26:38.558Z,48.00
2023-01-19T16:29:10.765Z,47.53
2023-01-19T16:31:41.492Z,46.55
2023-01-19T16:34:11.437Z,44.78
2023-01-19T16:36:42.594Z,42.08
2023-01-19T16:39:17.715Z,42.92
2023-01-19T16:41:47.854Z,58.67
2023-01-19T16:44:17.990Z,52.15
2023-01-19T16:46:49.744Z,44.92
2023-01-19T16:49:21.273Z,42.70
2023-01-19T16:51:53.016Z,38.00
2023-01-19T16:54:26.082Z,37.65
2023-01-19T16:56:56.714Z,39.65
2023-01-19T16:59:27.301Z,38.17
2023-01-19T17:01:57.900Z,38.72
2023-01-19T17:04:27.489Z,39.97
2023-01-19T17:06:57.361Z,39.67
2023-01-19T17:09:28.089Z,42.28
2023-01-19T17:11:58.386Z,41.13
2023-01-19T17:14:27.734Z,42.17
2023-01-19T17:16:57.419Z,46.10
2023-01-19T17:19:28.865Z,46.35
2023-01-19T17:21:58.624Z,45.90
2023-01-19T17:24:29.380Z,42.55
2023-01-19T17:26:58.994Z,45.47
2023-01-19T17:29:28.427Z,42.67
2023-01-19T17:31:58.227Z,42.88
2023-01-19T17:34:27.841Z,40.95
2023-01-19T17:37:03.104Z,47.83
2023-01-19T17:39:34.090Z,42.47
2023-01-19T17:42:03.709Z,41.53
2023-01-19T17:44:33.016Z,43.10
2023-01-19T17:47:03.099Z,47.10
2023-01-19T17:49:32.529Z,47.97
2023-01-19T17:52:02.291Z,46.22
2023-01-19T17:54:33.168Z,46.35
2023-01-19T17:57:02.856Z,43.00
2023-01-19T17:59:32.678Z,40.67
2023-01-19T18:02:02.448Z,39.38
2023-01-19T18:04:32.309Z,39.42
2023-01-19T18:07:02.074Z,42.78
2023-01-19T18:09:32.847Z,46.35
2023-01-19T18:12:02.379Z,46.33
2023-01-19T18:14:31.568Z,48.55
2023-01-19T18:17:01.275Z,42.42
2023-01-19T18:19:30.617Z,36.30
2023-01-19T18:22:00.209Z,36.83
2023-01-19T18:24:30.144Z,34.80
2023-01-19T18:27:01.168Z,35.70
2023-01-19T18:29:30.422Z,37.40
2023-01-19T18:31:59.938Z,33.75
2023-01-19T18:34:29.392Z,36.33
2023-01-19T18:36:58.891Z,36.70
2023-01-19T18:39:30.299Z,33.92
2023-01-19T18:42:01.549Z,31.83
2023-01-19T18:44:30.908Z,32.25
2023-01-19T18:47:00.661Z,33.55
2023-01-19T18:49:30.272Z,32.75
2023-01-19T18:52:00.503Z,33.83
2023-01-19T18:54:32.190Z,35.67
2023-01-19T18:57:03.087Z,37.42
2023-01-19T18:59:32.423Z,40.97
2023-01-19T19:02:02.257Z,42.00
2023-01-19T19:04:31.346Z,46.58
2023-01-19T19:07:00.967Z,49.78
2023-01-19T19:09:30.385Z,51.00
2023-01-19T19:12:00.058Z,50.97
2023-01-19T19:14:30.596Z,52.53
2023-01-19T19:17:00.232Z,52.55
2023-01-19T19:19:29.789Z,51.08
2023-01-19T19:21:59.484Z,52.38
2023-01-19T19:24:28.970Z,52.85
2023-01-19T19:26:58.844Z,54.25
2023-01-19T19:29:29.782Z,52.10
2023-01-19T19:31:59.296Z,56.75
2023-01-19T19:34:29.293Z,57.17
2023-01-19T19:37:01.048Z,51.72
2023-01-19T19:39:30.762Z,51.47
2023-01-19T19:42:00.278Z,49.33
2023-01-19T19:44:31.091Z,51.17
2023-01-19T19:47:00.800Z,55.10
2023-01-19T19:49:30.187Z,45.35
2023-01-19T19:51:59.883Z,43.05
2023-01-19T19:54:29.270Z,51.97
2023-01-19T19:56:59.004Z,42.50
2023-01-19T19:59:32.015Z,42.03
2023-01-19T20:02:01.807Z,43.17
2023-01-19T20:04:31.364Z,41.65
2023-01-19T20:07:01.272Z,44.28
2023-01-19T20:09:32.925Z,47.33
2023-01-19T20:12:02.802Z,42.40
2023-01-19T20:14:34.267Z,45.70
2023-01-19T20:17:05.762Z,44.30
2023-01-19T20:19:34.994Z,40.95
2023-01-19T20:22:04.920Z,40.10
2023-01-19T20:24:34.279Z,43.70
2023-01-19T20:27:04.012Z,40.65
2023-01-19T20:29:34.970Z,40.90
2023-01-19T20:32:04.985Z,39.15
2023-01-19T20:34:35.701Z,43.47
2023-01-19T20:37:06.181Z,40.47
2023-01-19T20:39:36.824Z,38.67
2023-01-19T20:42:10.967Z,37.42
2023-01-19T20:44:42.539Z,42.10
2023-01-19T20:47:12.358Z,44.95
2023-01-19T20:49:42.171Z,41.15
2023-01-19T20:52:11.983Z,42.90
2023-01-19T20:54:41.363Z,42.97
2023-01-19T20:57:11.156Z,38.67
2023-01-19T20:59:42.013Z,40.33
2023-01-19T21:02:15.209Z,40.47
2023-01-19T21:04:44.953Z,42.30
2023-01-19T21:07:14.543Z,43.63
2023-01-19T21:09:44.018Z,42.67
2023-01-19T21:12:15.316Z,42.67
2023-01-19T21:14:46.103Z,40.90
2023-01-19T21:17:15.788Z,38.47
2023-01-19T21:19:45.088Z,34.03
2023-01-19T21:22:14.915Z,34.03
2023-01-19T21:24:44.625Z,27.77
2023-01-19T21:27:14.116Z,26.50
2023-01-19T21:29:44.660Z,17.65
2023-01-19T21:32:14.259Z,17.90
2023-01-19T21:34:45.579Z,18.83
2023-01-19T21:37:15.356Z,16.65
2023-01-19T21:39:44.675Z,17.95
2023-01-19T21:42:14.623Z,16.83
2023-01-19T21:44:45.518Z,16.42
2023-01-19T21:47:15.120Z,16.98
2023-01-19T21:49:44.348Z,18.00
2023-01-19T21:52:14.057Z,18.05
2023-01-19T21:54:43.468Z,16.48
2023-01-19T21:57:15.264Z,16.70
2023-01-19T21:59:45.853Z,16.73
2023-01-19T22:02:21.563Z,17.33
2023-01-19T22:04:56.100Z,18.75
2023-01-19T22:07:25.625Z,18.58
2023-01-19T22:09:54.924Z,16.83
2023-01-19T22:12:24.556Z,18.73
2023-01-19T22:14:55.417Z,20.55
2023-01-19T22:17:24.988Z,17.92
2023-01-19T22:19:54.396Z,17.98
2023-01-19T22:22:23.913Z,18.60
2023-01-19T22:25:08.922Z,19.98
2023-01-19T22:27:38.861Z,15.63
2023-01-19T22:30:10.973Z,15.82
2023-01-19T22:32:40.602Z,13.60
2023-01-19T22:35:10.377Z,13.77
2023-01-19T22:37:40.134Z,13.23
2023-01-19T22:40:10.579Z,13.82
2023-01-19T22:42:40.095Z,13.85
2023-01-19T22:45:11.845Z,14.95
2023-01-19T22:47:41.969Z,12.02
2023-01-19T22:50:11.888Z,14.05
2023-01-19T22:52:42.486Z,12.52
2023-01-19T22:55:12.397Z,12.52
2023-01-19T22:57:42.327Z,12.82
2023-01-19T23:00:14.574Z,11.77
2023-01-19T23:02:44.135Z,11.75
2023-01-19T23:05:13.640Z,14.57
2023-01-19T23:07:43.735Z,11.98
2023-01-19T23:10:13.517Z,10.35
2023-01-19T23:12:43.251Z,10.80
2023-01-19T23:15:14.484Z,11.27
2023-01-19T23:17:47.350Z,10.98
2023-01-19T23:20:17.504Z,11.80
2023-01-19T23:22:46.992Z,11.35
2023-01-19T23:25:16.491Z,9.48
2023-01-19T23:27:46.109Z,9.45
2023-01-19T23:30:17.630Z,10.05
2023-01-19T23:32:50.774Z,8.77
2023-01-19T23:35:20.162Z,9.95
2023-01-19T23:37:49.918Z,8.55
2023-01-19T23:40:19.818Z,10.43
2023-01-19T23:42:49.733Z,8.45
2023-01-19T23:45:20.466Z,10.13
2023-01-19T23:47:49.899Z,9.00
2023-01-19T23:50:19.607Z,9.52
2023-01-19T23:52:49.241Z,8.93
2023-01-19T23:55:18.507Z,9.45
2023-01-19T23:57:48.179Z,9.93
